Time;durP1;ratioP1;P1;durP2;ratioP2;P2;SDS_P1;SDS_P2;PMS_P1;PMS_P2;Temp;Humidity;BMP_temperature;BMP_pressure;BME280_temperature;BME280_humidity;BME280_pressure;Samples;Min_cycle;Max_cycle;Signal;HPM_P1;HPM_P2
2022/11/04 00:01:18;;;;;;;;;;;;;;;;;;5093579;28;19908;-64
2022/11/04 00:03:44;;;;;;;;;;;;;;;;;;5095883;28;19912;-64
2022/11/04 00:06:10;;;;;;;;;;;;;;;;;;5097028;28;19915;-64
2022/11/04 00:08:36;;;;;;;;;;;;;;;;;;5096067;28;19959;-64
2022/11/04 00:13:46;;;;;;;;;;;;;;;;;;5097285;28;20272;-64
2022/11/04 00:18:57;;;;;;;;;;;;;;;;;;5096791;28;19954;-64
2022/11/04 00:29:37;;;;;;;;;;;;;;;;;;5097020;28;19915;-64
2022/11/04 00:34:48;;;;;;;;;;;;;;;;;;5097174;28;19934;-64
2022/11/04 00:37:13;;;;;;;;;;;;;;;;;;5095390;28;19916;-64
2022/11/04 00:39:39;;;;;;;;;;;;;;;;;;5096340;28;19918;-64
2022/11/04 00:42:05;;;;;;;;;;;;;;;;;;5095483;28;19915;-64
2022/11/04 00:44:31;;;;;;;;;;;;;;;;;;5095388;28;19908;-64
2022/11/04 00:46:57;;;;;;;;;;;;;;;;;;5096182;28;20002;-64
2022/11/04 00:49:23;;;;;;;;;;;;;;;;;;5096570;28;20310;-64
2022/11/04 00:51:49;;;;;;;;;;;;;;;;;;5095215;28;19966;-64
2022/11/04 00:54:15;;;;;;;;;;;;;;;;;;5095986;28;19908;-64
2022/11/04 00:56:41;;;;;;;;;;;;;;;;;;5096342;28;19916;-64
2022/11/04 00:59:07;;;;;;;;;;;;;;;;;;5096365;28;19915;-64
2022/11/04 01:01:33;;;;;;;;;;;;;;;;;;5096145;28;20049;-64
2022/11/04 01:03:59;;;;;;;;;;;;;;;;;;5096288;28;20383;-64
2022/11/04 01:06:25;;;;;;;;;;;;;;;;;;5096451;28;20303;-64
2022/11/04 01:08:51;;;;;;;;;;;;;;;;;;5095751;28;19908;-64
2022/11/04 01:11:17;;;;;;;;;;;;;;;;;;5096108;28;19908;-64
2022/11/04 01:13:43;;;;;;;;;;;;;;;;;;5096045;28;19912;-64
2022/11/04 01:16:08;;;;;;;;;;;;;;;;;;5095418;28;19927;-64
2022/11/04 01:18:34;;;;;;;;;;;;;;;;;;5095965;28;20419;-64
2022/11/04 01:21:00;;;;;;;;;;;;;;;;;;5094678;28;19930;-64
2022/11/04 01:23:26;;;;;;;;;;;;;;;;;;5094150;28;19908;-64
2022/11/04 01:25:52;;;;;;;;;;;;;;;;;;5095856;28;19912;-64
2022/11/04 01:28:18;;;;;;;;;;;;;;;;;;5095776;28;19908;-64
2022/11/04 01:30:44;;;;;;;;;;;;;;;;;;5093970;28;19915;-64
2022/11/04 01:33:10;;;;;;;;;;;;;;;;;;5094380;28;19993;-64
2022/11/04 01:35:36;;;;;;;;;;;;;;;;;;5095594;28;19908;-64
2022/11/04 01:38:02;;;;;;;;;;;;;;;;;;5095241;28;20389;-64
2022/11/04 01:40:28;;;;;;;;;;;;;;;;;;5095530;28;20349;-64
2022/11/04 01:42:54;;;;;;;;;;;;;;;;;;5093786;28;19909;-64
2022/11/04 01:45:20;;;;;;;;;;;;;;;;;;5095393;28;19908;-64
2022/11/04 01:47:46;;;;;;;;;;;;;;;;;;5095447;28;19961;-64
2022/11/04 01:50:12;;;;;;;;;;;;;;;;;;5095040;28;19919;-64
2022/11/04 01:52:38;;;;;;;;;;;;;;;;;;5095317;28;20409;-64
2022/11/04 01:55:04;;;;;;;;;;;;;;;;;;5095468;28;19912;-64
2022/11/04 01:57:30;;;;;;;;;;;;;;;;;;5093470;28;20368;-64
2022/11/04 01:59:56;;;;;;;;;;;;;;;;;;5095737;28;20344;-64
2022/11/04 02:02:21;;;;;;;;;;;;;;;;;;5095202;28;19908;-64
2022/11/04 02:04:47;;;;;;;;;;;;;;;;;;5093381;28;19966;-64
2022/11/04 02:07:13;;;;;;;;;;;;;;;;;;5095018;28;20008;-64
2022/11/04 02:09:39;;;;;;;;;;;;;;;;;;5095003;28;19912;-64
2022/11/04 02:13:05;;;;;;;;;;;;;;;;;;5094540;28;19909;-64
2022/11/04 02:15:00;;;;;;;;;;;;;;;;;;5085845;28;19999;-64
2022/11/04 02:17:26;;;;;;;;;;;;;;;;;;5094686;28;20038;-64
2022/11/04 02:19:52;;;;;;;;;;;;;;;;;;5094407;28;19912;-64
2022/11/04 02:22:18;;;;;;;;;;;;;;;;;;5094819;28;19908;-64
2022/11/04 02:24:44;;;;;;;;;;;;;;;;;;5095214;28;19908;-64
2022/11/04 02:27:10;;;;;;;;;;;;;;;;;;5092571;28;19931;-64
2022/11/04 02:29:36;;;;;;;;;;;;;;;;;;5094667;28;19908;-64
2022/11/04 02:32:03;;;;;;;;;;;;;;;;;;5092936;28;20315;-64
2022/11/04 02:34:29;;;;;;;;;;;;;;;;;;5093218;28;19912;-64
2022/11/04 02:36:55;;;;;;;;;;;;;;;;;;5094647;28;19917;-64
2022/11/04 02:39:21;;;;;;;;;;;;;;;;;;5094045;28;19909;-64
2022/11/04 02:41:46;;;;;;;;;;;;;;;;;;5094418;28;19908;-64
2022/11/04 02:44:12;;;;;;;;;;;;;;;;;;5094399;28;20444;-64
2022/11/04 02:46:39;;;;;;;;;;;;;;;;;;5093914;28;19931;-64
2022/11/04 02:49:05;;;;;;;;;;;;;;;;;;5094308;28;19908;-63
2022/11/04 02:51:31;;;;;;;;;;;;;;;;;;5094351;28;19977;-64
2022/11/04 02:53:56;;;;;;;;;;;;;;;;;;5092834;28;19915;-63
2022/11/04 02:56:22;;;;;;;;;;;;;;;;;;5094304;28;20307;-64
2022/11/04 02:58:48;;;;;;;;;;;;;;;;;;5094163;28;20370;-63
2022/11/04 03:01:14;;;;;;;;;;;;;;;;;;5093797;28;19912;-64
2022/11/04 03:03:40;;;;;;;;;;;;;;;;;;5094413;28;19915;-64
2022/11/04 03:06:06;;;;;;;;;;;;;;;;;;5094121;28;19908;-64
2022/11/04 03:08:32;;;;;;;;;;;;;;;;;;5093720;28;20368;-64
2022/11/04 03:10:58;;;;;;;;;;;;;;;;;;5094215;28;20375;-64
2022/11/04 03:13:24;;;;;;;;;;;;;;;;;;5092749;28;19931;-64
2022/11/04 03:15:50;;;;;;;;;;;;;;;;;;5093376;28;19914;-63
2022/11/04 03:18:16;;;;;;;;;;;;;;;;;;5094013;28;19955;-64
2022/11/04 03:20:42;;;;;;;;;;;;;;;;;;5094000;28;20398;-64
2022/11/04 03:23:09;;;;;;;;;;;;;;;;;;5092224;28;20007;-64
2022/11/04 03:25:35;;;;;;;;;;;;;;;;;;5093850;28;19915;-64
2022/11/04 03:28:01;;;;;;;;;;;;;;;;;;5092611;28;19912;-64
2022/11/04 03:30:27;;;;;;;;;;;;;;;;;;5092190;28;19998;-64
2022/11/04 03:32:53;;;;;;;;;;;;;;;;;;5093828;28;19908;-64
2022/11/04 03:35:19;;;;;;;;;;;;;;;;;;5093543;28;19908;-64
2022/11/04 03:37:45;;;;;;;;;;;;;;;;;;5094683;28;19916;-64
2022/11/04 03:40:11;;;;;;;;;;;;;;;;;;5098080;28;19908;-64
2022/11/04 03:42:37;;;;;;;;;;;;;;;;;;5097724;28;19915;-64
2022/11/04 03:45:03;;;;;;;;;;;;;;;;;;5097854;28;19987;-64
2022/11/04 03:47:29;;;;;;;;;;;;;;;;;;5097809;28;19908;-64
2022/11/04 03:49:55;;;;;;;;;;;;;;;;;;5097319;28;19916;-64
2022/11/04 03:52:21;;;;;;;;;;;;;;;;;;5097686;28;19909;-64
2022/11/04 03:54:47;;;;;;;;;;;;;;;;;;5097651;28;19908;-64
2022/11/04 03:57:13;;;;;;;;;;;;;;;;;;5097483;28;19915;-64
2022/11/04 03:59:39;;;;;;;;;;;;;;;;;;5097520;28;20318;-64
2022/11/04 04:02:05;;;;;;;;;;;;;;;;;;5097458;28;19931;-64
2022/11/04 04:04:31;;;;;;;;;;;;;;;;;;5097018;28;19946;-64
2022/11/04 04:06:57;;;;;;;;;;;;;;;;;;5097923;28;20410;-64
2022/11/04 04:09:23;;;;;;;;;;;;;;;;;;5097444;28;19908;-64
2022/11/04 04:11:48;;;;;;;;;;;;;;;;;;5096888;28;19915;-64
2022/11/04 04:14:37;;;;;;;;;;;;;;;;;;5097201;28;19912;-64
2022/11/04 04:17:00;;;;;;;;;;;;;;;;;;5096828;28;19920;-64
2022/11/04 04:19:26;;;;;;;;;;;;;;;;;;5096816;28;19956;-64
2022/11/04 04:21:52;;;;;;;;;;;;;;;;;;5097099;28;19962;-64
2022/11/04 04:29:47;;;;;;;;;;;;;;;;;;5096997;28;19954;-64
2022/11/04 04:32:13;;;;;;;;;;;;;;;;;;5095262;28;19912;-63
2022/11/04 04:34:39;;;;;;;;;;;;;;;;;;5097177;28;19912;-63
2022/11/04 04:37:05;;;;;;;;;;;;;;;;;;5095476;28;20279;-63
2022/11/04 04:45:02;;;;;;;;;;;;;;;;;;5096648;28;19931;-64
2022/11/04 04:47:28;;;;;;;;;;;;;;;;;;5094913;28;19915;-63
2022/11/04 04:49:54;;;;;;;;;;;;;;;;;;5094843;28;19966;-64
2022/11/04 04:52:20;;;;;;;;;;;;;;;;;;5095196;28;20352;-64
2022/11/04 04:54:46;;;;;;;;;;;;;;;;;;5096124;28;20279;-64
2022/11/04 04:57:12;;;;;;;;;;;;;;;;;;5096320;28;19945;-64
2022/11/04 04:59:38;;;;;;;;;;;;;;;;;;5095956;28;19973;-64
2022/11/04 05:02:04;;;;;;;;;;;;;;;;;;5096562;28;19937;-63
2022/11/04 05:04:30;;;;;;;;;;;;;;;;;;5096292;28;20446;-64
2022/11/04 05:06:56;;;;;;;;;;;;;;;;;;5096257;28;20427;-64
2022/11/04 05:09:22;;;;;;;;;;;;;;;;;;5096212;28;20387;-64
2022/11/04 05:11:48;;;;;;;;;;;;;;;;;;5094810;28;20420;-65
2022/11/04 05:14:14;;;;;;;;;;;;;;;;;;5094433;28;19931;-65
2022/11/04 05:16:40;;;;;;;;;;;;;;;;;;5095737;28;19920;-65
2022/11/04 05:19:06;;;;;;;;;;;;;;;;;;5095987;28;19908;-64
2022/11/04 05:21:32;;;;;;;;;;;;;;;;;;5095631;28;19912;-65
2022/11/04 05:23:57;;;;;;;;;;;;;;;;;;5095940;28;19951;-65
2022/11/04 05:26:23;;;;;;;;;;;;;;;;;;5094586;28;19908;-65
2022/11/04 05:28:49;;;;;;;;;;;;;;;;;;5094094;28;19908;-65
2022/11/04 05:31:15;;;;;;;;;;;;;;;;;;5095743;28;19938;-65
2022/11/04 05:33:41;;;;;;;;;;;;;;;;;;5095983;28;19908;-64
2022/11/04 05:36:07;;;;;;;;;;;;;;;;;;5095149;28;19923;-64
2022/11/04 05:38:33;;;;;;;;;;;;;;;;;;5095781;28;20372;-64
2022/11/04 05:40:59;;;;;;;;;;;;;;;;;;5095547;28;19999;-64
2022/11/04 05:43:25;;;;;;;;;;;;;;;;;;5095283;28;19915;-64
2022/11/04 05:45:51;;;;;;;;;;;;;;;;;;5095444;28;20348;-64
2022/11/04 05:48:17;;;;;;;;;;;;;;;;;;5094108;28;19943;-64
2022/11/04 05:50:43;;;;;;;;;;;;;;;;;;5095019;28;19908;-64
2022/11/04 05:53:09;;;;;;;;;;;;;;;;;;5095411;28;20280;-65
2022/11/04 05:55:35;;;;;;;;;;;;;;;;;;5095087;28;19908;-64
2022/11/04 05:58:01;;;;;;;;;;;;;;;;;;5094786;28;19916;-65
2022/11/04 06:00:27;;;;;;;;;;;;;;;;;;5093073;28;19909;-65
2022/11/04 06:02:53;;;;;;;;;;;;;;;;;;5095230;28;19915;-64
2022/11/04 06:05:19;;;;;;;;;;;;;;;;;;5094736;28;19908;-65
2022/11/04 06:07:45;;;;;;;;;;;;;;;;;;5095244;28;19908;-65
2022/11/04 06:10:11;;;;;;;;;;;;;;;;;;5094830;28;19943;-65
2022/11/04 06:12:37;;;;;;;;;;;;;;;;;;5094756;28;19911;-65
2022/11/04 06:15:03;;;;;;;;;;;;;;;;;;5102617;28;20285;-65
2022/11/04 06:17:29;;;;;;;;;;;;;;;;;;5096227;28;20314;-63
2022/11/04 06:19:55;;;;;;;;;;;;;;;;;;5090844;28;19913;-64
2022/11/04 06:22:21;;;;;;;;;;;;;;;;;;5075505;28;19912;-66
2022/11/04 06:24:47;;;;;;;;;;;;;;;;;;5095660;28;19908;-63
2022/11/04 06:27:13;;;;;;;;;;;;;;;;;;5088224;28;19912;-64
2022/11/04 06:29:40;;;;;;;;;;;;;;;;;;5094053;28;19919;-65
2022/11/04 06:32:06;;;;;;;;;;;;;;;;;;5089572;28;19908;-65
2022/11/04 06:34:32;;;;;;;;;;;;;;;;;;5082323;28;19969;-64
2022/11/04 06:36:58;;;;;;;;;;;;;;;;;;5080081;28;19924;-65
2022/11/04 06:39:24;;;;;;;;;;;;;;;;;;5086013;28;20011;-64
2022/11/04 06:41:50;;;;;;;;;;;;;;;;;;5086719;28;20026;-64
2022/11/04 06:44:16;;;;;;;;;;;;;;;;;;5088713;28;19908;-64
2022/11/04 06:46:42;;;;;;;;;;;;;;;;;;5080094;28;19920;-64
2022/11/04 06:49:08;;;;;;;;;;;;;;;;;;5081091;28;19992;-65
2022/11/04 06:51:34;;;;;;;;;;;;;;;;;;5069623;28;19916;-65
2022/11/04 06:54:00;;;;;;;;;;;;;;;;;;5086786;28;19919;-64
2022/11/04 06:56:26;;;;;;;;;;;;;;;;;;5089366;28;19912;-64
2022/11/04 06:58:52;;;;;;;;;;;;;;;;;;5091518;28;19939;-65
2022/11/04 07:01:18;;;;;;;;;;;;;;;;;;5088089;28;19908;-64
2022/11/04 07:03:44;;;;;;;;;;;;;;;;;;5090251;28;19908;-64
2022/11/04 07:06:09;;;;;;;;;;;;;;;;;;5089680;28;19946;-64
2022/11/04 07:08:36;;;;;;;;;;;;;;;;;;5078106;28;20010;-64
2022/11/04 07:11:01;;;;;;;;;;;;;;;;;;5082875;28;20093;-65
2022/11/04 07:13:27;;;;;;;;;;;;;;;;;;5088525;28;19955;-66
2022/11/04 07:15:54;;;;;;;;;;;;;;;;;;5076546;28;19998;-65
2022/11/04 07:18:19;;;;;;;;;;;;;;;;;;5069940;28;19965;-64
2022/11/04 07:20:45;;;;;;;;;;;;;;;;;;5088948;28;19912;-65
2022/11/04 07:23:11;;;;;;;;;;;;;;;;;;5089103;28;19919;-67
2022/11/04 07:25:37;;;;;;;;;;;;;;;;;;5079410;28;20487;-66
2022/11/04 07:28:04;;;;;;;;;;;;;;;;;;5080266;28;20355;-66
2022/11/04 07:30:30;;;;;;;;;;;;;;;;;;5090714;28;19953;-65
2022/11/04 07:32:57;;;;;;;;;;;;;;;;;;5092600;28;19912;-65
2022/11/04 07:35:23;;;;;;;;;;;;;;;;;;5090093;28;19919;-63
2022/11/04 07:37:49;;;;;;;;;;;;;;;;;;5077734;28;20288;-65
2022/11/04 07:40:15;;;;;;;;;;;;;;;;;;5068096;28;19928;-66
2022/11/04 07:42:41;;;;;;;;;;;;;;;;;;5069520;28;20384;-64
2022/11/04 07:45:07;;;;;;;;;;;;;;;;;;5071091;28;19970;-65
2022/11/04 07:47:33;;;;;;;;;;;;;;;;;;5072169;28;19920;-65
2022/11/04 07:50:22;;;;;;;;;;;;;;;;;;5150688;27;19912;-63
2022/11/04 07:52:49;;;;;;;;;;;;;;;;;;5132682;27;20323;-64
2022/11/04 07:55:17;;;;;;;;;;;;;;;;;;5137816;27;19911;-64
2022/11/04 07:57:44;;;;;;;433.63;229.68;;;;;;;;;;5140646;27;20380;-66
2022/11/04 08:00:10;;;;;;;379.60;199.80;;;;;;;;;;5149315;27;20114;-64
2022/11/04 08:05:15;;;;;;;;;;;;;;;;;;5109224;27;20273;-64
2022/11/04 08:07:41;;;;;;;;;;;;;;;;;;5109111;28;20395;-64
2022/11/04 08:10:07;;;;;;;;;;;;;;;;;;5106468;28;19951;-66
2022/11/04 08:12:33;;;;;;;;;;;;;;;;;;5105024;28;19973;-67
2022/11/04 08:14:59;;;;;;;;;;;;;;;;;;5104593;28;19908;-64
2022/11/04 08:17:25;;;;;;;;;;;;;;;;;;5105631;28;19914;-66
2022/11/04 08:19:51;;;;;;;;;;;;;;;;;;5104997;28;19915;-64
2022/11/04 08:22:17;;;;;;;;;;;;;;;;;;5105872;28;19916;-64
2022/11/04 08:24:46;;;;;;;;;;;;;;;;;;5106539;28;20437;-64
2022/11/04 08:27:11;;;;;;;;;;;;;;;;;;5108423;28;19908;-64
2022/11/04 08:29:37;;;;;;;;;;;;;;;;;;5103572;28;20010;-65
2022/11/04 08:32:03;;;;;;;;;;;;;;;;;;5105447;28;19912;-65
2022/11/04 08:34:29;;;;;;;;;;;;;;;;;;5107247;28;19951;-66
2022/11/04 08:36:56;;;;;;;;;;;;;;;;;;5099323;28;19916;-65
2022/11/04 08:39:22;;;;;;;;;;;;;;;;;;5105655;28;20241;-65
2022/11/04 08:41:49;;;;;;;;;;;;;;;;;;5108411;28;19915;-64
2022/11/04 08:50:51;;;;;;;;;;;;;;;;;;5110710;27;19916;-63
2022/11/04 08:54:15;;;;;;;;;;;;;;;;;;5110310;27;19920;-64
2022/11/04 08:56:41;;;;;;;;;;;;;;;;;;5110908;28;19915;-64
2022/11/04 08:59:07;;;;;;;;;;;;;;;;;;5110206;28;20257;-63
2022/11/04 09:01:52;;;;;;;;;;;;;;;;;;5111137;27;20287;-64
2022/11/04 09:04:18;;;;;;;;;;;;;;;;;;5110438;28;19919;-63
2022/11/04 09:06:45;;;;;;;;;;;;;;;;;;5108899;28;19955;-64
2022/11/04 09:11:41;;;;;;;;;;;;;;;;;;5066318;28;19912;-64
2022/11/04 09:17:25;;;;;;;;;;;;;;;;;;5108755;27;20367;-64
2022/11/04 09:19:51;;;;;;;;;;;;;;;;;;5111059;28;19999;-63
2022/11/04 09:22:17;;;;;;;;;;;;;;;;;;5128665;28;19934;-63
2022/11/04 09:24:43;;;;;;;;;;;;;;;;;;5129628;28;19994;-65
2022/11/04 09:27:09;;;;;;;;;;;;;;;;;;5109378;28;19931;-64
2022/11/04 09:29:35;;;;;;;;;;;;;;;;;;5129253;28;20323;-64
2022/11/04 09:32:01;;;;;;;;;;;;;;;;;;5129621;28;19907;-64
2022/11/04 09:36:49;;;;;;;;;;;;;;;;;;5087810;27;19912;-64
2022/11/04 09:41:49;;;;;;;;;;;;;;;;;;5087609;27;19919;-64
2022/11/04 09:46:13;;;;;;;;;;;;;;;;;;5067541;28;19916;-64
2022/11/04 09:50:52;;;;;;;;;;;;;;;;;;5089896;27;19913;-66
2022/11/04 09:53:42;;;;;;;;;;;;;;;;;;4968713;28;19923;-64
2022/11/04 09:56:08;;;;;;;;;;;;;;;;;;4967408;28;19940;-64
2022/11/04 09:59:22;;;;;;;;;;;;;;;;;;5110824;27;20364;-65
2022/11/04 10:01:48;;;;;;;;;;;;;;;;;;5108048;28;19908;-66
2022/11/04 10:04:14;;;;;;;;;;;;;;;;;;5121178;28;19904;-67
2022/11/04 10:08:58;;;;;;;;;;;;;;;;;;5029488;28;19918;-66
2022/11/04 10:11:24;;;;;;;;;;;;;;;;;;5025816;28;19920;-65
2022/11/04 10:13:50;;;;;;;;;;;;;;;;;;5025775;28;19917;-65
2022/11/04 10:16:16;;;;;;;;;;;;;;;;;;5027579;28;20400;-65
2022/11/04 10:20:53;;;;;;;;;;;;;;;;;;5149948;27;19911;-64
2022/11/04 10:25:04;;;;;;;;;;;;;;;;;;5129074;27;19922;-64
2022/11/04 10:27:30;;;;;;;;;;;;;;;;;;5129198;28;19915;-65
2022/11/04 10:29:56;;;;;;;;;;;;;;;;;;5128230;27;19908;-66
2022/11/04 10:32:22;;;;;;;;;;;;;;;;;;5128695;27;19907;-65
2022/11/04 10:34:48;;;;;;;;;;;;;;;;;;5128837;28;19911;-64
2022/11/04 10:37:14;;;;;;;;;;;;;;;;;;5127224;28;20448;-64
2022/11/04 10:39:40;;;;;;;;;;;;;;;;;;5128740;28;19908;-65
2022/11/04 10:42:06;;;;;;;;;;;;;;;;;;5127828;28;19907;-64
2022/11/04 10:44:32;;;;;;;;;;;;;;;;;;5127761;28;19927;-67
2022/11/04 10:46:59;;;;;;;;;;;;;;;;;;5128802;28;20392;-66
2022/11/04 10:49:25;;;;;;;;;;;;;;;;;;5120077;27;20040;-65
2022/11/04 10:51:51;;;;;;;;;;;;;;;;;;5129195;28;19957;-66
2022/11/04 10:54:17;;;;;;;;;;;;;;;;;;5129179;28;19951;-66
2022/11/04 10:56:43;;;;;;;;;;;;;;;;;;5129247;28;19908;-66
2022/11/04 10:59:09;;;;;;;;;;;;;;;;;;5128623;28;19912;-66
2022/11/04 11:01:35;;;;;;;;;;;;;;;;;;5128356;28;19908;-66
2022/11/04 11:04:01;;;;;;;;;;;;;;;;;;5125320;28;19919;-66
2022/11/04 11:06:27;;;;;;;;;;;;;;;;;;5123313;28;19918;-66
2022/11/04 11:08:53;;;;;;;;;;;;;;;;;;5121765;27;19915;-66
2022/11/04 11:11:19;;;;;;;;;;;;;;;;;;5122311;27;19915;-66
2022/11/04 11:13:45;;;;;;;;;;;;;;;;;;5131157;27;19913;-64
2022/11/04 11:16:11;;;;;;;;;;;;;;;;;;5134533;27;19908;-63
2022/11/04 11:18:38;;;;;;;;;;;;;;;;;;5126047;27;20402;-65
2022/11/04 11:21:04;;;;;;;;;;;;;;;;;;5125704;27;20364;-65
2022/11/04 11:23:30;;;;;;;;;;;;;;;;;;5125467;27;19924;-66
2022/11/04 11:25:56;;;;;;;;;;;;;;;;;;5125692;27;19947;-65
2022/11/04 11:28:22;;;;;;;;;;;;;;;;;;5125121;27;19911;-64
2022/11/04 11:30:48;;;;;;;;;;;;;;;;;;5128452;28;20383;-65
2022/11/04 11:33:14;;;;;;;;;;;;;;;;;;5126952;28;20300;-64
2022/11/04 11:35:41;;;;;;;;;;;;;;;;;;5117209;28;19947;-65
2022/11/04 11:38:08;;;;;;;;;;;;;;;;;;5112575;27;19977;-65
2022/11/04 11:40:34;;;;;;;;;;;;;;;;;;5112383;28;20610;-65
2022/11/04 11:43:00;;;;;;;;;;;;;;;;;;5110183;28;20022;-66
2022/11/04 11:45:26;;;;;;;;;;;;;;;;;;5105476;27;19915;-67
2022/11/04 11:47:54;;;;;;;;;;;;;;;;;;5110997;28;20316;-65
2022/11/04 11:50:23;;;;;;;;;;;;;;;;;;5112099;28;19908;-65
2022/11/04 11:52:49;;;;;;;;;;;;;;;;;;5111128;28;19939;-66
2022/11/04 11:55:16;;;;;;;;;;;;;;;;;;5111205;28;19918;-67
2022/11/04 11:57:43;;;;;;;;;;;;;;;;;;5115081;28;20001;-67
2022/11/04 12:00:11;;;;;;;;;;;;;;;;;;5112174;28;20401;-67
2022/11/04 12:02:39;;;;;;;;;;;;;;;;;;5114115;28;19912;-68
2022/11/04 12:05:05;;;;;;;;;;;;;;;;;;5112742;28;19949;-68
2022/11/04 12:07:31;;;;;;;;;;;;;;;;;;5114898;28;19919;-67
2022/11/04 12:09:57;;;;;;;;;;;;;;;;;;5113326;28;20363;-67
2022/11/04 12:12:23;;;;;;;;;;;;;;;;;;5113323;28;19939;-69
2022/11/04 12:14:49;;;;;;;;;;;;;;;;;;5113750;28;20340;-66
2022/11/04 12:17:15;;;;;;;;;;;;;;;;;;5104831;27;19919;-67
2022/11/04 12:19:41;;;;;;;;;;;;;;;;;;5091844;28;20498;-68
2022/11/04 12:22:07;;;;;;;;;;;;;;;;;;5092447;28;20318;-68
2022/11/04 12:24:33;;;;;;;;;;;;;;;;;;5092584;28;19920;-67
2022/11/04 12:26:59;;;;;;;;;;;;;;;;;;5091220;28;20367;-67
2022/11/04 12:29:26;;;;;;;;;;;;;;;;;;5107702;28;19912;-68
2022/11/04 12:31:52;;;;;;;;;;;;;;;;;;5112883;27;19915;-67
2022/11/04 12:34:18;;;;;;;;;;;;;;;;;;5112853;28;19953;-67
2022/11/04 12:36:44;;;;;;;;;;;;;;;;;;5108746;28;19920;-66
2022/11/04 12:39:10;;;;;;;;;;;;;;;;;;5107641;28;19912;-65
2022/11/04 12:41:36;;;;;;;;;;;;;;;;;;5097139;28;20019;-65
2022/11/04 12:44:02;;;;;;;;;;;;;;;;;;5108879;28;19920;-65
2022/11/04 12:46:28;;;;;;;;;;;;;;;;;;5122774;27;19919;-64
2022/11/04 12:48:54;;;;;;;;;;;;;;;;;;5119753;27;19922;-69
2022/11/04 12:51:20;;;;;;;;;;;;;;;;;;5120109;27;19968;-66
2022/11/04 12:53:46;;;;;;;;;;;;;;;;;;5108440;28;20375;-69
2022/11/04 12:56:12;;;;;;;;;;;;;;;;;;5106523;28;20287;-71
2022/11/04 12:58:38;;;;;;;;;;;;;;;;;;5112143;28;19969;-68
2022/11/04 13:01:04;;;;;;;;;;;;;;;;;;5111753;28;19912;-69
2022/11/04 13:03:30;;;;;;;;;;;;;;;;;;5103221;28;19920;-71
2022/11/04 13:05:56;;;;;;;;;;;;;;;;;;5107651;27;19937;-68
2022/11/04 13:08:22;;;;;;;;;;;;;;;;;;5126414;27;19911;-69
2022/11/04 13:10:48;;;;;;;;;;;;;;;;;;5112425;28;19951;-68
2022/11/04 13:13:14;;;;;;;;;;;;;;;;;;5108914;27;20014;-69
2022/11/04 13:15:40;;;;;;;;;;;;;;;;;;5102757;28;19912;-68
2022/11/04 13:18:07;;;;;;;;;;;;;;;;;;5106091;28;19976;-68
2022/11/04 13:20:33;;;;;;;;;;;;;;;;;;5094121;28;20419;-68
2022/11/04 13:22:59;;;;;;;;;;;;;;;;;;5108656;28;19957;-68
2022/11/04 13:25:25;;;;;;;;;;;;;;;;;;5104785;28;19908;-68
2022/11/04 13:28:07;;;;;;;;;;;;;;;;;;5083200;27;19916;-66
2022/11/04 13:30:33;;;;;;;;;;;;;;;;;;5085607;28;19912;-67
2022/11/04 13:33:00;;;;;;;;;;;;;;;;;;5084990;28;19915;-67
2022/11/04 13:35:26;;;;;;;;;;;;;;;;;;5067229;28;19913;-66
2022/11/04 13:37:52;;;;;;;;;;;;;;;;;;5066673;28;19931;-66
2022/11/04 13:40:18;;;;;;;;;;;;;;;;;;5067469;28;19919;-68
2022/11/04 13:43:49;;;;;;;;;;;;;;;;;;5106692;27;20220;-66
2022/11/04 13:46:15;;;;;;;;;;;;;;;;;;5105983;28;19977;-67
2022/11/04 13:48:41;;;;;;;;;;;;;;;;;;5108701;28;19911;-68
2022/11/04 13:51:07;;;;;;;;;;;;;;;;;;5108791;28;19918;-68
2022/11/04 13:53:33;;;;;;;;;;;;;;;;;;5107846;28;19916;-69
2022/11/04 13:55:59;;;;;;;;;;;;;;;;;;5109234;28;20386;-68
2022/11/04 14:00:17;;;;;;;;;;;;;;;;;;5131496;27;20010;-68
2022/11/04 14:02:43;;;;;;;;;;;;;;;;;;5128932;28;19962;-67
2022/11/04 14:05:09;;;;;;;;;;;;;;;;;;5130080;27;19908;-67
2022/11/04 14:07:35;;;;;;;;;;;;;;;;;;5130052;27;19915;-67
2022/11/04 14:10:02;;;;;;;;;;;;;;;;;;5129598;27;19908;-67
2022/11/04 14:12:28;;;;;;;;;;;;;;;;;;5129955;27;19914;-67
2022/11/04 14:14:54;;;;;;;;;;;;;;;;;;5129946;27;19908;-67
2022/11/04 14:17:20;;;;;;;;;;;;;;;;;;5130495;27;19908;-67
2022/11/04 14:19:46;;;;;;;;;;;;;;;;;;5131816;27;19962;-67
2022/11/04 14:22:50;;;;;;;;;;;;;;;;;;5091761;27;19923;-67
2022/11/04 14:25:16;;;;;;;;;;;;;;;;;;5091286;28;19913;-67
2022/11/04 14:28:02;;;;;;;;;;;;;;;;;;5091589;27;19938;-67
2022/11/04 14:30:28;;;;;;;;;;;;;;;;;;5091002;28;19912;-67
2022/11/04 14:35:38;;;;;;;;;;;;;;;;;;5092082;28;20395;-66
2022/11/04 14:39:41;;;;;;;;;;;;;;;;;;5112062;27;19929;-66
2022/11/04 14:42:07;;;;;;;;;;;;;;;;;;5111732;28;20010;-66
2022/11/04 14:44:33;;;;;;;;;;;;;;;;;;5111167;28;19911;-67
2022/11/04 14:46:59;;;;;;;;;;;;;;;;;;5111669;28;20007;-67
2022/11/04 14:49:25;;;;;;;;;;;;;;;;;;5111704;28;19961;-67
2022/11/04 14:51:51;;;;;;;;;;;;;;;;;;5111134;28;19911;-67
2022/11/04 14:55:19;;;;;;;;;;;;;;;;;;5132414;27;20386;-67
2022/11/04 14:59:57;;;;;;;;;;;;;;;;;;5091389;27;19917;-66
2022/11/04 15:02:22;;;;;;;;;;;;;;;;;;5091384;28;19921;-68
2022/11/04 15:04:48;;;;;;;;;;;;;;;;;;5090854;28;20277;-66
2022/11/04 15:07:14;;;;;;;;;;;;;;;;;;5091268;28;19908;-69
2022/11/04 15:09:41;;;;;;;;;;;;;;;;;;5091367;28;19909;-67
2022/11/04 15:13:19;;;;;;;;;;;;;;;;;;5091098;27;20295;-67
2022/11/04 15:15:49;;;;;;;;;;;;;;;;;;5091450;28;20269;-67
2022/11/04 15:18:15;;;;;;;;;;;;;;;;;;5091322;28;19908;-67
2022/11/04 15:26:54;;;;;;;;;;;;;;;;;;5111874;27;19923;-67
2022/11/04 15:29:20;;;;;;;;;;;;;;;;;;5111742;28;19999;-67
2022/11/04 15:31:46;;;;;;;;;;;;;;;;;;5111699;28;19914;-67
2022/11/04 15:34:12;;;;;;;;;;;;;;;;;;5109592;28;20257;-66
2022/11/04 15:37:24;;;;;;;;;;;;;;;;;;5091325;27;20383;-66
2022/11/04 15:39:50;;;;;;;;;;;;;;;;;;5090981;28;20000;-66
2022/11/04 15:44:49;;;;;;;;;;;;;;;;;;5091312;27;20240;-67
2022/11/04 15:48:59;;;;;;;;;;;;;;;;;;5090945;28;19916;-66
2022/11/04 15:51:25;;;;;;;;;;;;;;;;;;5091325;28;20006;-68
2022/11/04 15:53:51;;;;;;;;;;;;;;;;;;5090871;28;20276;-67
2022/11/04 15:57:21;;;;;;;;;;;;;;;;;;5091384;27;19916;-67
2022/11/04 16:01:21;;;;;;;;;;;;;;;;;;5173510;27;19911;-67
2022/11/04 16:03:47;;;;;;;;;;;;;;;;;;5173839;27;19915;-67
2022/11/04 16:06:13;;;;;;;;;;;;;;;;;;5173793;27;19907;-69
2022/11/04 16:08:39;;;;;;;;;;;;;;;;;;5173349;27;19932;-67
2022/11/04 16:13:07;;;;;;;;;;;;;;;;;;5091445;27;19922;-68
2022/11/04 16:18:03;;;;;;;;;;;;;;;;;;5111981;27;19916;-67
2022/11/04 16:22:56;;;;;;;;;;;;;;;;;;5090846;27;19919;-68
2022/11/04 16:25:22;;;;;;;;;;;;;;;;;;5089881;28;19923;-65
2022/11/04 16:27:48;;;;;;;;;;;;;;;;;;5089962;28;19908;-68
2022/11/04 16:30:14;;;;;;;;;;;;;;;;;;5090969;28;19908;-65
2022/11/04 16:32:40;;;;;;;;;;;;;;;;;;5091287;28;19919;-68
2022/11/04 16:35:06;;;;;;;;;;;;;;;;;;5091015;28;19908;-68
2022/11/04 16:37:32;;;;;;;;;;;;;;;;;;5090847;28;19958;-65
2022/11/04 16:39:58;;;;;;;;;;;;;;;;;;5091130;28;19908;-65
2022/11/04 16:42:24;;;;;;;;;;;;;;;;;;5090896;28;19916;-66
2022/11/04 16:44:50;;;;;;;;;;;;;;;;;;5090512;28;19923;-67
2022/11/04 16:47:17;;;;;;;;;;;;;;;;;;5090985;28;20481;-66
2022/11/04 16:49:43;;;;;;;;;;;;;;;;;;5089604;28;19908;-66
2022/11/04 16:52:10;;;;;;;;;;;;;;;;;;5090477;28;19908;-67
2022/11/04 16:54:36;;;;;;;;;;;;;;;;;;5090753;28;19987;-67
2022/11/04 16:57:05;;;;;;;;;;;;;;;;;;5090827;28;19912;-67
2022/11/04 16:59:31;;;;;;;;;;;;;;;;;;5090508;28;19909;-67
2022/11/04 17:01:57;;;;;;;;;;;;;;;;;;5090623;28;20360;-67
2022/11/04 17:04:23;;;;;;;;;;;;;;;;;;5090120;28;19915;-67
2022/11/04 17:06:49;;;;;;;;;;;;;;;;;;5090630;28;20360;-66
2022/11/04 17:09:15;;;;;;;;;;;;;;;;;;5090634;28;20283;-67
2022/11/04 17:11:41;;;;;;;;;;;;;;;;;;5090061;28;19935;-67
2022/11/04 17:14:07;;;;;;;;;;;;;;;;;;5089202;28;19948;-68
2022/11/04 17:16:33;;;;;;;;;;;;;;;;;;5090367;28;19912;-69
2022/11/04 17:18:59;;;;;;;;;;;;;;;;;;5090014;28;20377;-68
2022/11/04 17:21:25;;;;;;;;;;;;;;;;;;5088826;28;20300;-67
2022/11/04 17:23:51;;;;;;;;;;;;;;;;;;5088888;28;19948;-68
2022/11/04 17:26:17;;;;;;;;;;;;;;;;;;5088850;28;20348;-69
2022/11/04 17:28:43;;;;;;;;;;;;;;;;;;5090336;28;20276;-68
2022/11/04 17:31:09;;;;;;;;;;;;;;;;;;5090281;28;19908;-69
2022/11/04 17:33:35;;;;;;;;;;;;;;;;;;5079662;28;19908;-67
2022/11/04 17:36:01;;;;;;;;;;;;;;;;;;5075254;28;20004;-68
2022/11/04 17:38:28;;;;;;;;;;;;;;;;;;5076543;28;19908;-68
2022/11/04 17:48:03;;;;;;;;;;;;;;;;;;5111548;27;19919;-69
2022/11/04 17:50:29;;;;;;;;;;;;;;;;;;5110571;28;19999;-68
2022/11/04 17:55:08;;;;;;;;;;;;;;;;;;5111515;27;19916;-68
2022/11/04 17:57:34;;;;;;;;;;;;;;;;;;5110561;28;19912;-67
2022/11/04 18:01:15;;;;;;;;;;;;;;;;;;5091093;27;19919;-68
2022/11/04 18:03:41;;;;;;;;;;;;;;;;;;5091336;28;19913;-68
2022/11/04 18:14:02;;;;;;;;;;;;;;;;;;5111791;28;20001;-67
2022/11/04 18:16:28;;;;;;;;;;;;;;;;;;5111305;28;19908;-68
2022/11/04 18:21:52;;;;;;;;;;;;;;;;;;5091227;27;19917;-65
2022/11/04 18:24:18;;;;;;;;;;;;;;;;;;5091346;28;19913;-66
2022/11/04 18:26:44;;;;;;;;;;;;;;;;;;5091123;28;19908;-66
2022/11/04 18:29:10;;;;;;;;;;;;;;;;;;5090840;28;19914;-68
2022/11/04 18:31:36;;;;;;;;;;;;;;;;;;5091082;28;19916;-66